sensor_id;sensor_type;location;lat;lon;timestamp;temperature;humidity
47434;SHT31;33184;48.774;8.918;2022-12-18T00:02:51;-10.79;82.73
47434;SHT31;33184;48.774;8.918;2022-12-18T00:08:11;-10.81;82.80
47434;SHT31;33184;48.774;8.918;2022-12-18T00:13:32;-10.78;82.83
47434;SHT31;33184;48.774;8.918;2022-12-18T00:18:54;-10.93;82.44
47434;SHT31;33184;48.774;8.918;2022-12-18T00:24:15;-11.03;82.61
47434;SHT31;33184;48.774;8.918;2022-12-18T00:29:37;-10.96;82.84
47434;SHT31;33184;48.774;8.918;2022-12-18T00:35:00;-11.02;82.54
47434;SHT31;33184;48.774;8.918;2022-12-18T00:40:20;-11.02;82.59
47434;SHT31;33184;48.774;8.918;2022-12-18T00:45:41;-11.12;82.38
47434;SHT31;33184;48.774;8.918;2022-12-18T00:51:02;-11.12;82.59
47434;SHT31;33184;48.774;8.918;2022-12-18T00:56:23;-11.06;82.74
47434;SHT31;33184;48.774;8.918;2022-12-18T01:01:44;-11.08;82.60
47434;SHT31;33184;48.774;8.918;2022-12-18T01:07:05;-11.16;82.49
47434;SHT31;33184;48.774;8.918;2022-12-18T01:12:25;-11.23;82.26
47434;SHT31;33184;48.774;8.918;2022-12-18T01:17:46;-11.23;82.35
47434;SHT31;33184;48.774;8.918;2022-12-18T01:23:06;-11.24;82.47
47434;SHT31;33184;48.774;8.918;2022-12-18T01:28:27;-11.27;82.55
47434;SHT31;33184;48.774;8.918;2022-12-18T01:33:50;-11.16;82.91
47434;SHT31;33184;48.774;8.918;2022-12-18T01:39:13;-11.16;83.00
47434;SHT31;33184;48.774;8.918;2022-12-18T01:55:50;-10.93;83.08
47434;SHT31;33184;48.774;8.918;2022-12-18T02:01:12;-10.89;82.99
47434;SHT31;33184;48.774;8.918;2022-12-18T02:06:39;-10.98;82.94
47434;SHT31;33184;48.774;8.918;2022-12-18T02:17:52;-10.82;83.42
47434;SHT31;33184;48.774;8.918;2022-12-18T02:29:24;-10.98;82.79
47434;SHT31;33184;48.774;8.918;2022-12-18T02:34:49;-11.02;82.85
47434;SHT31;33184;48.774;8.918;2022-12-18T02:40:13;-11.02;82.70
47434;SHT31;33184;48.774;8.918;2022-12-18T02:45:35;-11.15;82.51
47434;SHT31;33184;48.774;8.918;2022-12-18T02:56:50;-11.19;82.78
47434;SHT31;33184;48.774;8.918;2022-12-18T03:02:25;-11.12;82.97
47434;SHT31;33184;48.774;8.918;2022-12-18T03:08:08;-11.08;83.00
47434;SHT31;33184;48.774;8.918;2022-12-18T03:19:19;-11.06;83.27
47434;SHT31;33184;48.774;8.918;2022-12-18T03:24:45;-11.11;83.18
47434;SHT31;33184;48.774;8.918;2022-12-18T03:30:12;-11.20;82.77
47434;SHT31;33184;48.774;8.918;2022-12-18T03:35:41;-11.19;82.83
47434;SHT31;33184;48.774;8.918;2022-12-18T03:41:32;-11.27;82.83
47434;SHT31;33184;48.774;8.918;2022-12-18T03:47:22;-11.18;83.78
47434;SHT31;33184;48.774;8.918;2022-12-18T03:58:28;-11.16;84.23
47434;SHT31;33184;48.774;8.918;2022-12-18T04:04:06;-11.19;84.65
47434;SHT31;33184;48.774;8.918;2022-12-18T04:09:32;-11.16;85.29
47434;SHT31;33184;48.774;8.918;2022-12-18T04:14:54;-11.15;85.48
47434;SHT31;33184;48.774;8.918;2022-12-18T04:20:16;-11.15;85.67
47434;SHT31;33184;48.774;8.918;2022-12-18T04:25:38;-11.08;86.38
47434;SHT31;33184;48.774;8.918;2022-12-18T04:31:03;-10.96;86.71
47434;SHT31;33184;48.774;8.918;2022-12-18T04:36:24;-10.91;86.98
47434;SHT31;33184;48.774;8.918;2022-12-18T04:41:48;-10.89;87.32
47434;SHT31;33184;48.774;8.918;2022-12-18T04:47:09;-10.92;87.59
47434;SHT31;33184;48.774;8.918;2022-12-18T04:52:29;-10.81;87.88
47434;SHT31;33184;48.774;8.918;2022-12-18T04:57:53;-10.67;88.28
47434;SHT31;33184;48.774;8.918;2022-12-18T05:03:13;-10.75;87.93
47434;SHT31;33184;48.774;8.918;2022-12-18T05:08:34;-10.81;87.96
47434;SHT31;33184;48.774;8.918;2022-12-18T05:13:54;-10.84;87.88
47434;SHT31;33184;48.774;8.918;2022-12-18T05:19:18;-10.81;87.91
47434;SHT31;33184;48.774;8.918;2022-12-18T05:24:38;-10.50;88.72
47434;SHT31;33184;48.774;8.918;2022-12-18T05:29:59;-10.09;90.07
47434;SHT31;33184;48.774;8.918;2022-12-18T05:35:19;-9.69;90.79
47434;SHT31;33184;48.774;8.918;2022-12-18T05:40:42;-9.40;91.74
47434;SHT31;33184;48.774;8.918;2022-12-18T05:46:09;-9.35;91.78
47434;SHT31;33184;48.774;8.918;2022-12-18T05:51:31;-9.32;91.98
47434;SHT31;33184;48.774;8.918;2022-12-18T05:56:51;-9.31;92.18
47434;SHT31;33184;48.774;8.918;2022-12-18T06:02:12;-9.16;92.30
47434;SHT31;33184;48.774;8.918;2022-12-18T06:07:32;-9.26;92.17
47434;SHT31;33184;48.774;8.918;2022-12-18T06:12:53;-9.16;92.39
47434;SHT31;33184;48.774;8.918;2022-12-18T06:18:13;-8.93;92.47
47434;SHT31;33184;48.774;8.918;2022-12-18T06:23:35;-8.89;92.46
47434;SHT31;33184;48.774;8.918;2022-12-18T06:28:56;-8.93;92.25
47434;SHT31;33184;48.774;8.918;2022-12-18T06:34:16;-9.05;92.27
47434;SHT31;33184;48.774;8.918;2022-12-18T06:39:37;-9.08;92.25
47434;SHT31;33184;48.774;8.918;2022-12-18T06:44:57;-9.17;92.05
47434;SHT31;33184;48.774;8.918;2022-12-18T06:50:18;-9.17;91.85
47434;SHT31;33184;48.774;8.918;2022-12-18T06:55:38;-9.23;91.56
47434;SHT31;33184;48.774;8.918;2022-12-18T07:01:00;-9.26;91.25
47434;SHT31;33184;48.774;8.918;2022-12-18T07:06:23;-9.32;91.01
47434;SHT31;33184;48.774;8.918;2022-12-18T07:11:44;-9.30;90.86
47434;SHT31;33184;48.774;8.918;2022-12-18T07:17:04;-9.34;90.50
47434;SHT31;33184;48.774;8.918;2022-12-18T07:22:25;-9.34;90.38
47434;SHT31;33184;48.774;8.918;2022-12-18T07:27:46;-9.32;90.19
47434;SHT31;33184;48.774;8.918;2022-12-18T07:33:06;-9.26;90.14
47434;SHT31;33184;48.774;8.918;2022-12-18T07:38:27;-9.27;89.95
47434;SHT31;33184;48.774;8.918;2022-12-18T07:43:48;-9.17;89.93
47434;SHT31;33184;48.774;8.918;2022-12-18T07:49:08;-9.04;89.80
47434;SHT31;33184;48.774;8.918;2022-12-18T07:54:29;-9.16;89.51
47434;SHT31;33184;48.774;8.918;2022-12-18T07:59:50;-9.26;88.97
47434;SHT31;33184;48.774;8.918;2022-12-18T08:05:10;-9.35;88.51
47434;SHT31;33184;48.774;8.918;2022-12-18T08:10:31;-9.35;88.54
47434;SHT31;33184;48.774;8.918;2022-12-18T08:16:03;-9.21;88.25
47434;SHT31;33184;48.774;8.918;2022-12-18T08:21:29;-9.16;88.18
47434;SHT31;33184;48.774;8.918;2022-12-18T08:26:50;-9.12;87.97
47434;SHT31;33184;48.774;8.918;2022-12-18T08:32:12;-9.03;88.01
47434;SHT31;33184;48.774;8.918;2022-12-18T08:37:32;-8.93;88.03
47434;SHT31;33184;48.774;8.918;2022-12-18T08:42:53;-8.70;88.31
47434;SHT31;33184;48.774;8.918;2022-12-18T08:48:32;-8.67;87.93
47434;SHT31;33184;48.774;8.918;2022-12-18T08:53:52;-8.48;88.32
47434;SHT31;33184;48.774;8.918;2022-12-18T08:59:13;-8.29;88.27
47434;SHT31;33184;48.774;8.918;2022-12-18T09:04:33;-8.15;88.31
47434;SHT31;33184;48.774;8.918;2022-12-18T09:09:54;-7.93;88.42
47434;SHT31;33184;48.774;8.918;2022-12-18T09:15:15;-7.59;88.89
47434;SHT31;33184;48.774;8.918;2022-12-18T09:20:36;-7.29;89.13
47434;SHT31;33184;48.774;8.918;2022-12-18T09:26:00;-6.96;89.30
47434;SHT31;33184;48.774;8.918;2022-12-18T09:31:22;-6.63;89.45
47434;SHT31;33184;48.774;8.918;2022-12-18T09:36:43;-6.30;89.61
47434;SHT31;33184;48.774;8.918;2022-12-18T09:42:04;-5.95;89.06
47434;SHT31;33184;48.774;8.918;2022-12-18T09:47:30;-5.65;88.31
47434;SHT31;33184;48.774;8.918;2022-12-18T09:52:56;-5.37;87.44
47434;SHT31;33184;48.774;8.918;2022-12-18T10:03:57;-4.79;84.60
47434;SHT31;33184;48.774;8.918;2022-12-18T10:09:37;-4.51;83.87
47434;SHT31;33184;48.774;8.918;2022-12-18T10:15:28;-4.18;83.10
47434;SHT31;33184;48.774;8.918;2022-12-18T10:20:55;-3.73;82.49
47434;SHT31;33184;48.774;8.918;2022-12-18T10:26:17;-3.42;81.40
47434;SHT31;33184;48.774;8.918;2022-12-18T10:31:38;-3.02;80.35
47434;SHT31;33184;48.774;8.918;2022-12-18T10:37:00;-2.97;79.22
47434;SHT31;33184;48.774;8.918;2022-12-18T10:42:21;-2.78;78.83
47434;SHT31;33184;48.774;8.918;2022-12-18T10:47:44;-2.78;78.25
47434;SHT31;33184;48.774;8.918;2022-12-18T10:53:13;-2.61;77.58
47434;SHT31;33184;48.774;8.918;2022-12-18T10:58:38;-2.27;77.67
47434;SHT31;33184;48.774;8.918;2022-12-18T11:04:05;-1.96;76.56
47434;SHT31;33184;48.774;8.918;2022-12-18T11:09:31;-1.44;76.63
47434;SHT31;33184;48.774;8.918;2022-12-18T11:14:53;-1.12;75.39
47434;SHT31;33184;48.774;8.918;2022-12-18T11:20:29;-0.86;73.53
47434;SHT31;33184;48.774;8.918;2022-12-18T11:25:59;-0.64;73.05
47434;SHT31;33184;48.774;8.918;2022-12-18T11:31:27;-0.62;73.08
47434;SHT31;33184;48.774;8.918;2022-12-18T11:36:48;-0.38;73.08
47434;SHT31;33184;48.774;8.918;2022-12-18T11:42:31;-0.28;71.87
47434;SHT31;33184;48.774;8.918;2022-12-18T11:54:13;-0.13;71.56
47434;SHT31;33184;48.774;8.918;2022-12-18T11:59:44;-0.27;71.87
47434;SHT31;33184;48.774;8.918;2022-12-18T12:16:39;-0.85;72.00
47434;SHT31;33184;48.774;8.918;2022-12-18T12:38:41;-1.37;74.32
47434;SHT31;33184;48.774;8.918;2022-12-18T12:44:12;-1.26;74.95
47434;SHT31;33184;48.774;8.918;2022-12-18T12:49:34;-1.26;74.63
47434;SHT31;33184;48.774;8.918;2022-12-18T12:54:55;-1.10;74.56
47434;SHT31;33184;48.774;8.918;2022-12-18T13:00:18;-0.92;74.15
47434;SHT31;33184;48.774;8.918;2022-12-18T13:05:53;-0.79;73.32
47434;SHT31;33184;48.774;8.918;2022-12-18T13:11:30;-0.83;73.35
47434;SHT31;33184;48.774;8.918;2022-12-18T13:17:27;-1.06;73.35
47434;SHT31;33184;48.774;8.918;2022-12-18T13:22:49;-0.90;73.70
47434;SHT31;33184;48.774;8.918;2022-12-18T13:28:15;-1.10;73.92
47434;SHT31;33184;48.774;8.918;2022-12-18T13:44:39;-1.37;75.47
47434;SHT31;33184;48.774;8.918;2022-12-18T13:50:20;-1.40;76.15
47434;SHT31;33184;48.774;8.918;2022-12-18T13:55:45;-1.55;76.41
47434;SHT31;33184;48.774;8.918;2022-12-18T14:01:21;-1.72;76.84
47434;SHT31;33184;48.774;8.918;2022-12-18T14:06:42;-1.88;77.40
47434;SHT31;33184;48.774;8.918;2022-12-18T14:12:06;-1.96;78.04
47434;SHT31;33184;48.774;8.918;2022-12-18T14:23:41;-2.15;78.58
47434;SHT31;33184;48.774;8.918;2022-12-18T14:29:37;-2.19;78.76
47434;SHT31;33184;48.774;8.918;2022-12-18T14:35:12;-2.33;79.15
47434;SHT31;33184;48.774;8.918;2022-12-18T14:40:33;-2.40;79.52
47434;SHT31;33184;48.774;8.918;2022-12-18T14:45:55;-2.58;79.82
47434;SHT31;33184;48.774;8.918;2022-12-18T14:51:19;-2.71;80.04
47434;SHT31;33184;48.774;8.918;2022-12-18T14:56:46;-2.90;80.40
47434;SHT31;33184;48.774;8.918;2022-12-18T15:02:23;-2.98;80.74
47434;SHT31;33184;48.774;8.918;2022-12-18T15:07:58;-3.08;81.11
47434;SHT31;33184;48.774;8.918;2022-12-18T15:13:23;-3.16;81.45
47434;SHT31;33184;48.774;8.918;2022-12-18T15:18:45;-3.29;81.78
47434;SHT31;33184;48.774;8.918;2022-12-18T15:24:17;-3.40;82.12
47434;SHT31;33184;48.774;8.918;2022-12-18T15:36:30;-3.62;83.07
47434;SHT31;33184;48.774;8.918;2022-12-18T15:42:04;-3.76;83.23
47434;SHT31;33184;48.774;8.918;2022-12-18T15:47:43;-3.83;83.68
47434;SHT31;33184;48.774;8.918;2022-12-18T15:53:04;-3.91;84.27
47434;SHT31;33184;48.774;8.918;2022-12-18T15:58:24;-3.97;84.42
47434;SHT31;33184;48.774;8.918;2022-12-18T16:03:45;-4.01;84.83
47434;SHT31;33184;48.774;8.918;2022-12-18T16:09:05;-3.98;85.15
47434;SHT31;33184;48.774;8.918;2022-12-18T16:14:30;-4.00;85.36
47434;SHT31;33184;48.774;8.918;2022-12-18T16:19:51;-4.06;85.45
47434;SHT31;33184;48.774;8.918;2022-12-18T16:25:26;-4.03;85.66
47434;SHT31;33184;48.774;8.918;2022-12-18T16:30:46;-4.01;85.87
47434;SHT31;33184;48.774;8.918;2022-12-18T16:36:07;-4.00;85.96
47434;SHT31;33184;48.774;8.918;2022-12-18T16:41:28;-3.97;85.94
47434;SHT31;33184;48.774;8.918;2022-12-18T16:46:51;-4.03;85.81
47434;SHT31;33184;48.774;8.918;2022-12-18T16:52:12;-4.04;86.00
47434;SHT31;33184;48.774;8.918;2022-12-18T16:57:33;-4.04;86.06
47434;SHT31;33184;48.774;8.918;2022-12-18T17:02:54;-4.04;86.13
47434;SHT31;33184;48.774;8.918;2022-12-18T17:08:14;-3.96;86.22
47434;SHT31;33184;48.774;8.918;2022-12-18T17:13:35;-3.93;86.08
47434;SHT31;33184;48.774;8.918;2022-12-18T17:18:55;-3.94;86.00
47434;SHT31;33184;48.774;8.918;2022-12-18T17:24:16;-3.87;86.11
47434;SHT31;33184;48.774;8.918;2022-12-18T17:29:37;-3.80;86.15
47434;SHT31;33184;48.774;8.918;2022-12-18T17:34:58;-3.77;86.26
47434;SHT31;33184;48.774;8.918;2022-12-18T17:40:18;-3.72;86.38
47434;SHT31;33184;48.774;8.918;2022-12-18T17:45:39;-3.70;86.33
47434;SHT31;33184;48.774;8.918;2022-12-18T17:51:06;-3.72;86.25
47434;SHT31;33184;48.774;8.918;2022-12-18T17:56:27;-3.72;86.29
47434;SHT31;33184;48.774;8.918;2022-12-18T18:01:47;-3.73;86.45
47434;SHT31;33184;48.774;8.918;2022-12-18T18:07:08;-3.69;86.57
47434;SHT31;33184;48.774;8.918;2022-12-18T18:12:29;-3.64;86.61
47434;SHT31;33184;48.774;8.918;2022-12-18T18:18:08;-3.54;86.92
47434;SHT31;33184;48.774;8.918;2022-12-18T18:23:28;-3.53;86.73
47434;SHT31;33184;48.774;8.918;2022-12-18T18:28:52;-3.50;86.79
47434;SHT31;33184;48.774;8.918;2022-12-18T18:34:15;-3.46;86.95
47434;SHT31;33184;48.774;8.918;2022-12-18T18:39:36;-3.38;87.14
47434;SHT31;33184;48.774;8.918;2022-12-18T18:44:56;-3.29;87.22
47434;SHT31;33184;48.774;8.918;2022-12-18T18:50:17;-3.26;87.03
47434;SHT31;33184;48.774;8.918;2022-12-18T18:55:38;-3.21;87.01
47434;SHT31;33184;48.774;8.918;2022-12-18T19:01:00;-3.19;87.00
47434;SHT31;33184;48.774;8.918;2022-12-18T19:06:24;-3.19;87.04
47434;SHT31;33184;48.774;8.918;2022-12-18T19:11:45;-3.18;87.14
47434;SHT31;33184;48.774;8.918;2022-12-18T19:17:24;-3.16;87.15
47434;SHT31;33184;48.774;8.918;2022-12-18T19:22:45;-3.15;87.27
47434;SHT31;33184;48.774;8.918;2022-12-18T19:28:06;-3.11;87.32
47434;SHT31;33184;48.774;8.918;2022-12-18T19:33:28;-3.08;87.30
47434;SHT31;33184;48.774;8.918;2022-12-18T19:38:50;-3.11;87.15
47434;SHT31;33184;48.774;8.918;2022-12-18T19:44:13;-3.09;87.17
47434;SHT31;33184;48.774;8.918;2022-12-18T19:49:34;-3.07;87.26
47434;SHT31;33184;48.774;8.918;2022-12-18T19:54:56;-3.00;87.32
47434;SHT31;33184;48.774;8.918;2022-12-18T20:00:17;-2.94;87.33
47434;SHT31;33184;48.774;8.918;2022-12-18T20:05:37;-2.87;87.33
47434;SHT31;33184;48.774;8.918;2022-12-18T20:10:58;-2.87;87.24
47434;SHT31;33184;48.774;8.918;2022-12-18T20:16:18;-2.85;87.19
47434;SHT31;33184;48.774;8.918;2022-12-18T20:21:39;-2.87;87.16
47434;SHT31;33184;48.774;8.918;2022-12-18T20:27:01;-2.84;87.31
47434;SHT31;33184;48.774;8.918;2022-12-18T20:32:21;-2.77;87.29
47434;SHT31;33184;48.774;8.918;2022-12-18T20:37:42;-2.70;87.21
47434;SHT31;33184;48.774;8.918;2022-12-18T20:43:02;-2.57;87.18
47434;SHT31;33184;48.774;8.918;2022-12-18T20:48:23;-2.40;86.79
47434;SHT31;33184;48.774;8.918;2022-12-18T20:53:44;-2.29;86.83
47434;SHT31;33184;48.774;8.918;2022-12-18T20:59:05;-2.29;86.95
47434;SHT31;33184;48.774;8.918;2022-12-18T21:04:26;-2.29;87.03
47434;SHT31;33184;48.774;8.918;2022-12-18T21:09:47;-2.25;87.20
47434;SHT31;33184;48.774;8.918;2022-12-18T21:15:08;-2.25;87.15
47434;SHT31;33184;48.774;8.918;2022-12-18T21:20:29;-2.26;87.19
47434;SHT31;33184;48.774;8.918;2022-12-18T21:25:49;-2.40;86.91
47434;SHT31;33184;48.774;8.918;2022-12-18T21:31:10;-2.40;87.07
47434;SHT31;33184;48.774;8.918;2022-12-18T21:36:32;-2.32;87.04
47434;SHT31;33184;48.774;8.918;2022-12-18T21:41:53;-2.32;87.03
47434;SHT31;33184;48.774;8.918;2022-12-18T21:47:33;-2.30;87.09
47434;SHT31;33184;48.774;8.918;2022-12-18T21:52:53;-2.30;87.10
47434;SHT31;33184;48.774;8.918;2022-12-18T21:58:14;-2.30;87.18
47434;SHT31;33184;48.774;8.918;2022-12-18T22:03:34;-2.30;87.28
47434;SHT31;33184;48.774;8.918;2022-12-18T22:08:55;-2.35;87.34
47434;SHT31;33184;48.774;8.918;2022-12-18T22:14:15;-2.37;87.54
47434;SHT31;33184;48.774;8.918;2022-12-18T22:19:39;-2.42;87.79
47434;SHT31;33184;48.774;8.918;2022-12-18T22:24:59;-2.37;87.99
47434;SHT31;33184;48.774;8.918;2022-12-18T22:30:20;-2.33;88.04
47434;SHT31;33184;48.774;8.918;2022-12-18T22:35:40;-2.29;87.99
47434;SHT31;33184;48.774;8.918;2022-12-18T22:41:01;-2.23;87.96
47434;SHT31;33184;48.774;8.918;2022-12-18T22:46:23;-2.19;87.97
47434;SHT31;33184;48.774;8.918;2022-12-18T22:51:44;-2.16;87.87
47434;SHT31;33184;48.774;8.918;2022-12-18T22:57:05;-2.16;87.93
47434;SHT31;33184;48.774;8.918;2022-12-18T23:02:26;-2.05;87.97
47434;SHT31;33184;48.774;8.918;2022-12-18T23:07:46;-2.06;87.89
47434;SHT31;33184;48.774;8.918;2022-12-18T23:13:07;-2.02;87.95
47434;SHT31;33184;48.774;8.918;2022-12-18T23:18:27;-2.03;87.75
47434;SHT31;33184;48.774;8.918;2022-12-18T23:24:00;-2.05;87.88
47434;SHT31;33184;48.774;8.918;2022-12-18T23:29:30;-2.02;87.97
47434;SHT31;33184;48.774;8.918;2022-12-18T23:34:55;-2.06;87.93
47434;SHT31;33184;48.774;8.918;2022-12-18T23:40:16;-2.05;88.04
47434;SHT31;33184;48.774;8.918;2022-12-18T23:45:37;-2.01;88.09
47434;SHT31;33184;48.774;8.918;2022-12-18T23:51:07;-1.93;88.31
47434;SHT31;33184;48.774;8.918;2022-12-18T23:56:28;-1.83;88.47
